Pisgah, Missouri
Current Conditions -  °F | °C
As of 4:35 AM on Thursday 27 Nov 2014 (Local Time) from KVER Reporting Station
Overcast Overcast  
Wind Chill: 22°   Ceiling: 1200
Heat Index: 30°   Visibility: 7mi
Dew Point: 26°   Wind: 9mph
Humidity: 83%   Direction: 310°NW
Pressure: 30.44"   Gusts: 21mph
Location:  38.7427°N, 92.7977°W
Report Text: KVER 271035Z AUTO 31008G18KT 7SM OVC012 M01/M03 A3044 RMK AO2 T10101035
Loading
Personal Weather Stations






























Interactive Weather Map New forecast layout! Learn more

10-Day Weather Forecast

Advertisements
Track Severe Weather on mobile